createdAt,value
2023-03-02T00:02:13.663Z,101911.60
2023-03-02T00:04:45.810Z,101917.75
2023-03-02T00:07:27.944Z,101912.48
2023-03-02T00:09:55.858Z,101912.20
2023-03-02T00:12:27.045Z,101913.14
2023-03-02T00:14:55.362Z,101903.95
2023-03-02T00:17:27.951Z,101906.28
2023-03-02T00:20:11.244Z,101899.44
2023-03-02T00:22:41.111Z,101900.47
2023-03-02T00:25:10.016Z,101902.34
2023-03-02T00:27:37.944Z,101896.65
2023-03-02T00:30:07.477Z,101895.45
2023-03-02T00:32:35.420Z,101890.34
2023-03-02T00:35:04.509Z,101887.36
2023-03-02T00:37:34.515Z,101886.92
2023-03-02T00:40:06.307Z,101888.46
2023-03-02T00:42:34.380Z,101887.88
2023-03-02T00:45:04.799Z,101887.05
2023-03-02T00:47:37.212Z,101895.30
2023-03-02T00:50:06.746Z,101892.35
2023-03-02T00:52:35.060Z,101896.57
2023-03-02T00:55:02.952Z,101894.52
2023-03-02T00:57:31.476Z,101893.77
2023-03-02T00:59:59.984Z,101890.68
2023-03-02T01:02:33.813Z,101884.48
2023-03-02T01:05:01.971Z,101877.46
2023-03-02T01:07:29.889Z,101875.08
2023-03-02T01:09:57.985Z,101875.00
2023-03-02T01:12:25.876Z,101872.04
2023-03-02T01:14:54.916Z,101869.23
2023-03-02T01:17:22.980Z,101867.05
2023-03-02T01:19:51.721Z,101871.42
2023-03-02T01:22:20.705Z,101869.17
2023-03-02T01:24:49.025Z,101868.21
2023-03-02T01:27:16.955Z,101862.79
2023-03-02T01:29:45.302Z,101860.72
2023-03-02T01:32:13.372Z,101855.00
2023-03-02T01:34:41.430Z,101851.42
2023-03-02T01:37:09.324Z,101849.99
2023-03-02T01:39:37.347Z,101843.11
2023-03-02T01:42:05.492Z,101836.23
2023-03-02T01:44:39.886Z,101834.73
2023-03-02T01:47:17.312Z,101832.86
2023-03-02T01:50:05.222Z,101833.55
2023-03-02T01:52:39.984Z,101832.52
2023-03-02T01:55:12.020Z,101827.95
2023-03-02T01:57:44.484Z,101824.73
2023-03-02T02:00:36.698Z,101829.31
2023-03-02T02:03:21.250Z,101828.17
2023-03-02T02:06:00.738Z,101823.16
2023-03-02T02:08:28.802Z,101821.69
2023-03-02T02:10:56.842Z,101822.42
2023-03-02T02:13:25.087Z,101824.61
2023-03-02T02:15:52.953Z,101824.43
2023-03-02T02:18:20.898Z,101823.05
2023-03-02T02:20:51.812Z,101826.32
2023-03-02T02:23:33.767Z,101827.61
2023-03-02T02:26:12.150Z,101825.18
2023-03-02T02:28:45.016Z,101820.41
2023-03-02T02:31:13.014Z,101818.11
2023-03-02T02:33:46.066Z,101818.27
2023-03-02T02:36:23.208Z,101817.20
2023-03-02T02:38:55.956Z,101811.83
2023-03-02T02:41:28.763Z,101807.89
2023-03-02T02:43:57.206Z,101809.78
2023-03-02T02:46:25.968Z,101804.85
2023-03-02T02:48:54.458Z,101809.57
2023-03-02T02:51:26.646Z,101810.68
2023-03-02T02:54:02.724Z,101812.19
2023-03-02T02:56:38.367Z,101810.07
2023-03-02T02:59:22.852Z,101811.59
2023-03-02T03:01:51.748Z,101812.77
2023-03-02T03:04:26.797Z,101809.52
2023-03-02T03:06:58.050Z,101809.13
2023-03-02T03:09:27.581Z,101810.98
2023-03-02T03:12:14.009Z,101811.43
2023-03-02T03:14:43.406Z,101813.32
2023-03-02T03:17:14.027Z,101812.48
2023-03-02T03:19:55.217Z,101817.84
2023-03-02T03:22:23.496Z,101817.94
2023-03-02T03:24:51.749Z,101823.80
2023-03-02T03:27:19.902Z,101823.89
2023-03-02T03:29:48.463Z,101818.08
2023-03-02T03:32:19.793Z,101822.25
2023-03-02T03:34:48.494Z,101820.52
2023-03-02T03:37:22.280Z,101819.52
2023-03-02T03:39:51.134Z,101822.69
2023-03-02T03:42:19.362Z,101825.85
2023-03-02T03:44:47.695Z,101827.03
2023-03-02T03:47:16.057Z,101825.94
2023-03-02T03:49:44.604Z,101823.21
2023-03-02T03:52:12.606Z,101821.40
2023-03-02T03:54:40.747Z,101819.02
2023-03-02T03:57:10.749Z,101813.65
2023-03-02T03:59:38.822Z,101816.13
2023-03-02T04:02:07.043Z,101816.27
2023-03-02T04:04:37.943Z,101813.95
2023-03-02T04:07:10.024Z,101815.33
2023-03-02T04:09:39.410Z,101811.36
2023-03-02T04:12:11.730Z,101808.16
2023-03-02T04:14:42.396Z,101812.10
2023-03-02T04:17:10.283Z,101808.38
2023-03-02T04:19:42.338Z,101806.79
2023-03-02T04:22:10.722Z,101801.58
2023-03-02T04:24:38.655Z,101799.90
2023-03-02T04:27:06.663Z,101805.18
2023-03-02T04:29:37.003Z,101806.22
2023-03-02T04:32:07.433Z,101799.80
2023-03-02T04:34:37.744Z,101800.94
2023-03-02T04:37:05.990Z,101800.88
2023-03-02T04:39:34.219Z,101804.72
2023-03-02T04:42:02.278Z,101802.48
2023-03-02T04:44:30.280Z,101805.19
2023-03-02T04:46:58.359Z,101809.00
2023-03-02T04:49:26.390Z,101812.85
2023-03-02T04:51:54.563Z,101818.25
2023-03-02T04:54:26.923Z,101815.95
2023-03-02T04:56:55.806Z,101818.66
2023-03-02T04:59:27.258Z,101813.48
2023-03-02T05:01:58.974Z,101812.61
2023-03-02T05:04:28.719Z,101813.66
2023-03-02T05:06:57.837Z,101815.39
2023-03-02T05:09:31.057Z,101813.44
2023-03-02T05:12:01.390Z,101817.69
2023-03-02T05:14:30.247Z,101818.45
2023-03-02T05:16:58.817Z,101817.75
2023-03-02T05:19:26.798Z,101820.77
2023-03-02T05:21:56.577Z,101818.55
2023-03-02T05:24:24.991Z,101814.56
2023-03-02T05:26:52.944Z,101817.80
2023-03-02T05:29:20.900Z,101819.02
2023-03-02T05:31:49.773Z,101820.52
2023-03-02T05:34:18.255Z,101825.81
2023-03-02T05:36:46.594Z,101830.44
2023-03-02T05:39:14.580Z,101828.55
2023-03-02T05:41:42.465Z,101834.83
2023-03-02T05:44:12.193Z,101834.34
2023-03-02T05:46:40.728Z,101830.20
2023-03-02T05:49:08.842Z,101830.00
2023-03-02T05:51:36.678Z,101832.66
2023-03-02T05:54:04.691Z,101836.20
2023-03-02T05:56:33.182Z,101836.98
2023-03-02T05:59:01.470Z,101841.11
2023-03-02T06:01:29.338Z,101843.99
2023-03-02T06:03:57.208Z,101844.77
2023-03-02T06:06:25.225Z,101849.67
2023-03-02T06:08:53.075Z,101852.72
2023-03-02T06:11:21.096Z,101857.54
2023-03-02T06:13:49.071Z,101861.86
2023-03-02T06:16:17.142Z,101864.69
2023-03-02T06:18:44.920Z,101864.83
2023-03-02T06:21:13.111Z,101868.20
2023-03-02T06:23:41.050Z,101874.36
2023-03-02T06:26:10.882Z,101874.37
2023-03-02T06:28:51.503Z,101877.29
2023-03-02T06:31:21.872Z,101882.27
2023-03-02T06:33:50.244Z,101883.13
2023-03-02T06:36:18.442Z,101884.66
2023-03-02T06:38:46.564Z,101883.48
2023-03-02T06:41:14.804Z,101880.77
2023-03-02T06:43:43.013Z,101877.98
2023-03-02T06:46:11.956Z,101873.84
2023-03-02T06:48:40.046Z,101874.06
2023-03-02T06:51:08.608Z,101876.28
2023-03-02T06:53:36.751Z,101879.05
2023-03-02T06:56:05.255Z,101880.06
2023-03-02T06:58:33.289Z,101877.67
2023-03-02T07:01:01.451Z,101883.77
2023-03-02T07:03:29.641Z,101883.16
2023-03-02T07:05:57.732Z,101884.14
2023-03-02T07:08:26.101Z,101873.27
2023-03-02T07:10:54.045Z,101869.50
2023-03-02T07:13:22.080Z,101871.13
2023-03-02T07:15:49.851Z,101867.89
2023-03-02T07:18:17.750Z,101867.99
2023-03-02T07:20:45.672Z,101866.95
2023-03-02T07:23:13.568Z,101866.39
2023-03-02T07:25:41.587Z,101868.56
2023-03-02T07:28:09.523Z,101865.68
2023-03-02T07:30:37.597Z,101867.06
2023-03-02T07:33:05.533Z,101867.52
2023-03-02T07:35:33.487Z,101866.70
2023-03-02T07:38:01.461Z,101865.91
2023-03-02T07:40:29.399Z,101868.29
2023-03-02T07:42:57.543Z,101867.58
2023-03-02T07:45:26.431Z,101872.00
2023-03-02T07:47:54.330Z,101873.86
2023-03-02T07:50:22.401Z,101873.67
2023-03-02T07:52:50.233Z,101872.19
2023-03-02T07:55:18.072Z,101878.50
2023-03-02T07:57:46.001Z,101876.63
2023-03-02T08:00:14.812Z,101879.23
2023-03-02T08:02:43.173Z,101876.63
2023-03-02T08:05:12.214Z,101877.73
2023-03-02T08:07:41.054Z,101877.34
2023-03-02T08:10:10.621Z,101876.08
2023-03-02T08:12:38.520Z,101873.30
2023-03-02T08:15:07.300Z,101870.69
2023-03-02T08:17:35.362Z,101872.05
2023-03-02T08:20:04.707Z,101868.53
2023-03-02T08:22:32.606Z,101865.91
2023-03-02T08:25:00.557Z,101864.48
2023-03-02T08:27:28.611Z,101866.27
2023-03-02T08:29:56.985Z,101867.66
2023-03-02T08:32:25.209Z,101861.98
2023-03-02T08:34:53.204Z,101862.22
2023-03-02T08:37:21.197Z,101859.10
2023-03-02T08:39:49.607Z,101857.20
2023-03-02T08:42:17.925Z,101854.34
2023-03-02T08:44:45.895Z,101851.92
2023-03-02T08:47:13.817Z,101851.98
2023-03-02T08:49:41.865Z,101850.13
2023-03-02T08:52:09.893Z,101845.58
2023-03-02T08:54:40.708Z,101845.57
2023-03-02T08:57:11.605Z,101844.17
2023-03-02T08:59:40.065Z,101842.77
2023-03-02T09:02:11.003Z,101840.34
2023-03-02T09:04:39.395Z,101838.71
2023-03-02T09:07:07.523Z,101838.02
2023-03-02T09:09:35.657Z,101837.10
2023-03-02T09:12:03.939Z,101837.25
2023-03-02T09:14:31.768Z,101834.92
2023-03-02T09:16:59.817Z,101832.43
2023-03-02T09:19:27.906Z,101833.34
2023-03-02T09:21:55.839Z,101831.23
2023-03-02T09:24:23.859Z,101832.98
2023-03-02T09:26:51.905Z,101825.45
2023-03-02T09:29:19.911Z,101824.54
2023-03-02T09:31:47.826Z,101821.75
2023-03-02T09:34:15.812Z,101825.37
2023-03-02T09:36:43.613Z,101818.61
2023-03-02T09:39:12.587Z,101816.43
2023-03-02T09:41:49.878Z,101819.70
2023-03-02T09:44:38.652Z,101823.36
2023-03-02T09:47:36.045Z,101823.42
2023-03-02T09:50:16.071Z,101823.43
2023-03-02T09:52:52.389Z,101824.51
2023-03-02T09:55:26.011Z,101825.62
2023-03-02T09:57:56.189Z,101821.16
2023-03-02T10:00:28.542Z,101820.84
2023-03-02T10:03:16.619Z,101817.88
2023-03-02T10:05:51.362Z,101821.79
2023-03-02T10:08:26.781Z,101824.58
2023-03-02T10:10:58.122Z,101823.30
2023-03-02T10:13:36.260Z,101823.93
2023-03-02T10:16:13.071Z,101818.73
2023-03-02T10:18:49.796Z,101824.42
2023-03-02T10:21:27.072Z,101824.38
2023-03-02T10:24:11.459Z,101826.06
2023-03-02T10:26:44.831Z,101824.42
2023-03-02T10:29:27.954Z,101826.14
2023-03-02T10:32:21.500Z,101823.54
2023-03-02T10:34:51.358Z,101822.96
2023-03-02T10:37:28.536Z,101817.62
2023-03-02T10:39:56.782Z,101815.86
2023-03-02T10:42:32.633Z,101817.18
2023-03-02T10:45:24.020Z,101813.98
2023-03-02T10:48:06.869Z,101811.46
2023-03-02T10:50:35.346Z,101812.28
2023-03-02T10:53:06.308Z,101810.35
2023-03-02T10:55:35.016Z,101809.83
2023-03-02T10:58:07.265Z,101800.29
2023-03-02T11:00:36.785Z,101799.20
2023-03-02T11:03:20.285Z,101797.64
2023-03-02T11:05:49.263Z,101798.42
2023-03-02T11:08:18.405Z,101794.67
2023-03-02T11:10:59.766Z,101796.23
2023-03-02T11:13:38.698Z,101796.77
2023-03-02T11:16:19.218Z,101790.20
2023-03-02T11:18:55.511Z,101786.96
2023-03-02T11:21:44.224Z,101783.80
2023-03-02T11:24:21.485Z,101780.55
2023-03-02T11:26:54.388Z,101776.03
2023-03-02T11:29:35.633Z,101776.64
2023-03-02T11:32:27.487Z,101779.88
2023-03-02T11:35:02.966Z,101775.90
2023-03-02T11:37:48.166Z,101776.02
2023-03-02T11:40:24.852Z,101775.27
2023-03-02T11:42:56.775Z,101769.81
2023-03-02T11:45:28.492Z,101769.42
2023-03-02T11:48:26.619Z,101771.03
2023-03-02T11:50:57.922Z,101769.07
2023-03-02T11:53:34.026Z,101765.85
2023-03-02T11:56:02.071Z,101766.38
2023-03-02T11:58:32.882Z,101764.88
2023-03-02T12:01:02.032Z,101761.48
2023-03-02T12:03:32.772Z,101760.98
2023-03-02T12:06:05.245Z,101755.52
2023-03-02T12:08:38.720Z,101756.37
2023-03-02T12:11:06.601Z,101754.64
2023-03-02T12:13:38.659Z,101753.04
2023-03-02T12:16:35.853Z,101749.54
2023-03-02T12:19:16.493Z,101749.38
2023-03-02T12:21:56.995Z,101749.39
2023-03-02T12:24:26.366Z,101750.09
2023-03-02T12:27:25.807Z,101749.23
2023-03-02T12:30:11.279Z,101748.01
2023-03-02T12:32:39.401Z,101746.48
2023-03-02T12:35:07.372Z,101742.42
2023-03-02T12:38:05.462Z,101741.15
2023-03-02T12:40:51.862Z,101738.49
2023-03-02T12:44:06.228Z,101739.23
2023-03-02T12:46:37.359Z,101736.46
2023-03-02T12:49:20.251Z,101730.52
2023-03-02T12:52:04.017Z,101729.48
2023-03-02T12:54:34.589Z,101725.98
2023-03-02T12:57:14.080Z,101726.79
2023-03-02T12:59:42.946Z,101727.12
2023-03-02T13:02:23.272Z,101724.94
2023-03-02T13:04:55.491Z,101721.83
2023-03-02T13:07:28.843Z,101722.91
2023-03-02T13:09:58.857Z,101717.90
2023-03-02T13:12:29.408Z,101716.52
2023-03-02T13:14:59.153Z,101711.34
2023-03-02T13:17:31.271Z,101709.91
2023-03-02T13:20:01.721Z,101710.95
2023-03-02T13:22:30.256Z,101709.27
2023-03-02T13:25:02.158Z,101705.30
2023-03-02T13:27:31.892Z,101702.66
2023-03-02T13:30:23.883Z,101703.71
2023-03-02T13:32:54.545Z,101697.66
2023-03-02T13:35:26.726Z,101694.27
2023-03-02T13:38:04.916Z,101692.10
2023-03-02T13:40:47.789Z,101692.86
2023-03-02T13:43:31.205Z,101689.46
2023-03-02T13:46:00.470Z,101683.30
2023-03-02T13:48:29.918Z,101679.91
2023-03-02T13:51:01.585Z,101681.33
2023-03-02T13:53:34.757Z,101676.83
2023-03-02T13:56:03.932Z,101668.34
2023-03-02T13:58:38.480Z,101668.02
2023-03-02T14:01:07.718Z,101664.16
2023-03-02T14:03:35.656Z,101659.94
2023-03-02T14:06:03.572Z,101653.12
2023-03-02T14:08:32.128Z,101646.36
2023-03-02T14:11:02.639Z,101638.33
2023-03-02T14:13:51.695Z,101633.65
2023-03-02T14:16:20.177Z,101627.63
2023-03-02T14:18:51.110Z,101620.32
2023-03-02T14:21:24.382Z,101618.64
2023-03-02T14:23:54.018Z,101613.83
2023-03-02T14:26:54.423Z,101607.10
2023-03-02T14:29:34.684Z,101607.20
2023-03-02T14:32:04.436Z,101601.55
2023-03-02T14:34:36.047Z,101598.20
2023-03-02T14:37:10.718Z,101593.52
2023-03-02T14:39:46.414Z,101587.36
2023-03-02T14:42:17.029Z,101586.59
2023-03-02T14:44:48.923Z,101583.01
2023-03-02T14:47:19.529Z,101578.91
2023-03-02T14:49:49.461Z,101573.06
2023-03-02T14:52:28.331Z,101567.77
2023-03-02T14:54:59.686Z,101569.79
2023-03-02T14:57:30.447Z,101568.05
2023-03-02T15:00:01.343Z,101565.56
2023-03-02T15:02:29.383Z,101565.64
2023-03-02T15:04:57.849Z,101563.30
2023-03-02T15:07:28.098Z,101566.37
2023-03-02T15:09:58.058Z,101568.27
2023-03-02T15:12:26.427Z,101567.78
2023-03-02T15:14:54.353Z,101574.05
2023-03-02T15:17:22.276Z,101567.85
2023-03-02T15:19:50.493Z,101569.30
2023-03-02T15:22:18.505Z,101567.80
2023-03-02T15:24:46.600Z,101566.77
2023-03-02T15:27:14.624Z,101566.08
2023-03-02T15:29:44.949Z,101563.75
2023-03-02T15:32:13.090Z,101560.99
2023-03-02T15:34:41.068Z,101560.59
2023-03-02T15:37:11.671Z,101562.85
2023-03-02T15:39:40.343Z,101560.02
2023-03-02T15:42:08.260Z,101561.69
2023-03-02T15:44:36.360Z,101561.43
2023-03-02T15:47:04.477Z,101563.99
2023-03-02T15:49:32.969Z,101563.09
2023-03-02T15:52:00.983Z,101562.48
2023-03-02T15:54:29.521Z,101566.12
2023-03-02T15:56:57.606Z,101565.39
2023-03-02T15:59:27.719Z,101565.93
2023-03-02T16:01:59.820Z,101567.30
2023-03-02T16:04:30.402Z,101562.55
2023-03-02T16:06:58.903Z,101564.59
2023-03-02T16:09:29.095Z,101564.38
2023-03-02T16:11:57.688Z,101560.73
2023-03-02T16:14:26.062Z,101558.86
2023-03-02T16:16:54.089Z,101557.85
2023-03-02T16:19:22.095Z,101557.44
2023-03-02T16:21:50.105Z,101556.89
2023-03-02T16:24:18.240Z,101553.25
2023-03-02T16:26:46.280Z,101553.34
2023-03-02T16:29:14.602Z,101553.52
2023-03-02T16:31:46.169Z,101551.64
2023-03-02T16:34:14.662Z,101554.22
2023-03-02T16:36:42.992Z,101549.83
2023-03-02T16:39:12.117Z,101551.65
2023-03-02T16:41:43.196Z,101554.09
2023-03-02T16:44:13.486Z,101557.48
2023-03-02T16:46:43.708Z,101558.27
2023-03-02T16:49:13.526Z,101561.92
2023-03-02T16:51:42.071Z,101560.83
2023-03-02T16:54:14.484Z,101557.57
2023-03-02T16:56:45.370Z,101556.85
2023-03-02T16:59:13.480Z,101555.80
2023-03-02T17:01:41.537Z,101553.80
2023-03-02T17:04:09.791Z,101556.71
2023-03-02T17:06:38.919Z,101558.64
2023-03-02T17:09:06.999Z,101555.46
2023-03-02T17:11:35.053Z,101558.02
2023-03-02T17:14:02.960Z,101563.05
2023-03-02T17:16:30.969Z,101561.17
2023-03-02T17:18:59.930Z,101568.40
2023-03-02T17:21:27.862Z,101570.14
2023-03-02T17:23:55.893Z,101565.37
2023-03-02T17:26:23.746Z,101566.83
2023-03-02T17:28:51.632Z,101565.56
2023-03-02T17:31:19.468Z,101566.07
2023-03-02T17:33:47.485Z,101570.50
2023-03-02T17:36:15.871Z,101566.58
2023-03-02T17:38:43.920Z,101571.28
2023-03-02T17:41:12.088Z,101570.51
2023-03-02T17:43:41.881Z,101567.27
2023-03-02T17:46:14.765Z,101564.80
2023-03-02T17:48:43.266Z,101565.38
2023-03-02T17:51:11.911Z,101562.98
2023-03-02T17:53:39.842Z,101560.47
2023-03-02T17:56:07.949Z,101558.16
2023-03-02T17:58:44.648Z,101554.02
2023-03-02T18:01:15.991Z,101558.71
2023-03-02T18:03:45.224Z,101560.05
2023-03-02T18:06:14.741Z,101556.02
2023-03-02T18:08:42.685Z,101557.05
2023-03-02T18:11:10.717Z,101554.99
2023-03-02T18:13:40.222Z,101560.71
2023-03-02T18:16:08.878Z,101554.11
2023-03-02T18:18:36.985Z,101555.20
2023-03-02T18:21:05.946Z,101549.70
2023-03-02T18:23:34.090Z,101548.77
2023-03-02T18:26:02.150Z,101552.27
2023-03-02T18:28:30.187Z,101551.37
2023-03-02T18:30:58.092Z,101556.46
2023-03-02T18:33:26.539Z,101553.21
2023-03-02T18:35:54.557Z,101547.34
2023-03-02T18:38:22.781Z,101544.77
2023-03-02T18:40:50.678Z,101548.40
2023-03-02T18:43:18.714Z,101549.34
2023-03-02T18:45:46.702Z,101546.69
2023-03-02T18:48:14.562Z,101551.00
2023-03-02T18:50:43.747Z,101550.23
2023-03-02T18:53:12.932Z,101553.58
2023-03-02T18:55:41.380Z,101552.98
2023-03-02T18:58:17.060Z,101554.11
2023-03-02T19:00:46.341Z,101549.52
2023-03-02T19:03:16.813Z,101549.19
2023-03-02T19:05:45.498Z,101549.05
2023-03-02T19:08:13.418Z,101551.68
2023-03-02T19:10:42.446Z,101551.98
2023-03-02T19:13:11.761Z,101550.66
2023-03-02T19:15:40.475Z,101551.40
2023-03-02T19:18:09.819Z,101555.90
2023-03-02T19:20:37.697Z,101558.97
2023-03-02T19:23:05.590Z,101560.27
2023-03-02T19:25:34.006Z,101560.61
2023-03-02T19:28:02.253Z,101556.64
2023-03-02T19:30:30.360Z,101554.63
2023-03-02T19:32:58.266Z,101551.36
2023-03-02T19:35:27.848Z,101551.69
2023-03-02T19:37:56.492Z,101555.45
2023-03-02T19:40:27.182Z,101552.86
2023-03-02T19:42:57.131Z,101552.64
2023-03-02T19:45:29.385Z,101551.61
2023-03-02T19:47:58.406Z,101549.90
2023-03-02T19:50:27.966Z,101550.83
2023-03-02T19:52:57.150Z,101550.42
2023-03-02T19:55:25.845Z,101543.09
2023-03-02T19:58:00.202Z,101543.11
2023-03-02T20:00:30.749Z,101537.80
2023-03-02T20:02:59.227Z,101538.70
2023-03-02T20:05:27.945Z,101546.23
2023-03-02T20:07:56.022Z,101543.88
2023-03-02T20:10:37.424Z,101542.58
2023-03-02T20:13:06.465Z,101544.71
2023-03-02T20:15:38.690Z,101544.50
2023-03-02T20:18:09.472Z,101545.92
2023-03-02T20:20:37.605Z,101547.06
2023-03-02T20:23:05.537Z,101547.70
2023-03-02T20:25:34.844Z,101554.96
2023-03-02T20:28:05.672Z,101551.45
2023-03-02T20:30:38.038Z,101547.83
2023-03-02T20:33:07.684Z,101541.34
2023-03-02T20:35:40.144Z,101544.11
2023-03-02T20:38:13.188Z,101545.15
2023-03-02T20:40:41.641Z,101548.89
2023-03-02T20:43:09.488Z,101546.83
2023-03-02T20:45:37.489Z,101545.77
2023-03-02T20:48:05.594Z,101545.14
2023-03-02T20:50:35.237Z,101542.59
2023-03-02T20:53:05.570Z,101541.07
2023-03-02T20:55:34.481Z,101545.58
2023-03-02T20:58:02.822Z,101546.69
2023-03-02T21:00:32.998Z,101551.11
2023-03-02T21:03:00.876Z,101553.32
2023-03-02T21:05:30.907Z,101550.74
2023-03-02T21:07:59.536Z,101547.05
2023-03-02T21:10:32.176Z,101550.10
2023-03-02T21:13:00.324Z,101548.84
2023-03-02T21:15:28.925Z,101554.09
2023-03-02T21:17:59.396Z,101545.50
2023-03-02T21:20:32.060Z,101544.23
2023-03-02T21:22:59.884Z,101539.58
2023-03-02T21:25:28.371Z,101537.62
2023-03-02T21:27:56.868Z,101536.86
2023-03-02T21:30:29.376Z,101537.94
2023-03-02T21:32:57.657Z,101535.80
2023-03-02T21:35:25.959Z,101538.30
2023-03-02T21:37:58.087Z,101538.59
2023-03-02T21:40:31.898Z,101535.05
2023-03-02T21:43:01.860Z,101536.21
2023-03-02T21:45:29.793Z,101537.92
2023-03-02T21:47:57.842Z,101528.89
2023-03-02T21:50:29.616Z,101531.04
2023-03-02T21:53:01.341Z,101528.20
2023-03-02T21:55:30.913Z,101524.22
2023-03-02T21:57:59.313Z,101519.78
2023-03-02T22:00:37.502Z,101515.20
2023-03-02T22:03:06.650Z,101509.66
2023-03-02T22:05:34.517Z,101507.63
2023-03-02T22:08:02.592Z,101504.30
2023-03-02T22:10:32.654Z,101500.14
2023-03-02T22:13:17.729Z,101494.93
2023-03-02T22:15:47.706Z,101498.73
2023-03-02T22:18:19.484Z,101506.02
2023-03-02T22:20:50.096Z,101514.06
2023-03-02T22:23:21.286Z,101521.80
2023-03-02T22:26:14.718Z,101517.70
2023-03-02T22:28:43.129Z,101508.59
2023-03-02T22:31:20.169Z,101510.59
2023-03-02T22:33:49.676Z,101512.64
2023-03-02T22:36:23.503Z,101507.02
2023-03-02T22:38:51.744Z,101503.30
2023-03-02T22:41:20.519Z,101502.18
2023-03-02T22:43:49.628Z,101501.10
2023-03-02T22:46:20.721Z,101505.59
2023-03-02T22:48:52.839Z,101512.16
2023-03-02T22:51:28.015Z,101519.30
2023-03-02T22:53:58.941Z,101516.92
2023-03-02T22:56:29.662Z,101516.58
2023-03-02T22:59:21.899Z,101515.73
2023-03-02T23:01:50.566Z,101511.73
2023-03-02T23:04:18.632Z,101508.61
2023-03-02T23:06:50.349Z,101509.70
2023-03-02T23:09:24.957Z,101501.45
2023-03-02T23:11:56.600Z,101496.02
2023-03-02T23:14:24.928Z,101493.05
2023-03-02T23:16:58.370Z,101489.98
2023-03-02T23:19:30.837Z,101480.44
2023-03-02T23:21:58.836Z,101475.80
2023-03-02T23:24:27.347Z,101470.75
2023-03-02T23:26:55.512Z,101468.74
2023-03-02T23:29:23.594Z,101466.18
2023-03-02T23:31:51.761Z,101465.94
2023-03-02T23:34:20.446Z,101465.04
2023-03-02T23:36:48.407Z,101462.66
2023-03-02T23:39:17.624Z,101454.27
2023-03-02T23:41:45.700Z,101452.31
2023-03-02T23:44:13.598Z,101453.11
2023-03-02T23:46:41.500Z,101455.59
2023-03-02T23:49:09.521Z,101451.88
2023-03-02T23:51:37.466Z,101448.02
2023-03-02T23:54:05.277Z,101443.70
2023-03-02T23:56:33.243Z,101443.18
2023-03-02T23:59:02.451Z,101445.95
